Time;durP1;ratioP1;P1;durP2;ratioP2;P2;SDS_P1;SDS_P2;PMS_P1;PMS_P2;Temp;Humidity;BMP_temperature;BMP_pressure;BME280_temperature;BME280_humidity;BME280_pressure;Samples;Min_cycle;Max_cycle;Signal;HPM_P1;HPM_P2
2023/10/30 00:01:20;;;;;;;3.42;1.45;;;32.00;29.60;;;;;;4976216;28;20479;-68
2023/10/30 00:03:49;;;;;;;15.18;2.00;;;32.20;29.60;;;;;;4976348;28;20049;-68
2023/10/30 00:06:16;;;;;;;2.30;1.10;;;32.60;29.90;;;;;;4976283;28;20429;-68
2023/10/30 00:08:44;;;;;;;4.00;1.40;;;33.00;29.80;;;;;;4976217;28;20023;-68
2023/10/30 00:11:11;;;;;;;3.85;1.77;;;33.10;29.40;;;;;;4976114;28;20050;-68
2023/10/30 00:13:38;;;;;;;4.07;1.60;;;33.20;29.50;;;;;;4975019;28;20034;-68
2023/10/30 00:16:06;;;;;;;4.32;1.10;;;32.90;28.40;;;;;;4976218;28;20062;-68
2023/10/30 00:18:34;;;;;;;5.25;1.23;;;32.90;28.70;;;;;;4976023;28;20031;-69
2023/10/30 00:21:01;;;;;;;9.27;1.27;;;33.00;28.70;;;;;;4975842;28;20058;-68
2023/10/30 00:23:29;;;;;;;6.57;1.60;;;32.80;28.40;;;;;;4975263;28;20089;-68
2023/10/30 00:25:57;;;;;;;2.17;1.38;;;32.70;28.50;;;;;;4956775;29;20065;-68
2023/10/30 00:28:27;;;;;;;3.70;1.38;;;32.50;28.70;;;;;;4956829;28;20042;-67
2023/10/30 00:30:55;;;;;;;2.38;1.17;;;32.40;28.40;;;;;;4957182;28;20106;-67
2023/10/30 00:33:22;;;;;;;4.35;1.17;;;32.50;28.80;;;;;;4955947;28;20464;-67
2023/10/30 00:35:49;;;;;;;6.10;1.23;;;32.60;28.70;;;;;;4956410;29;20029;-67
2023/10/30 00:38:17;;;;;;;4.10;1.27;;;32.30;28.70;;;;;;4956268;29;20074;-67
2023/10/30 00:40:44;;;;;;;5.25;1.40;;;32.10;28.40;;;;;;4956142;29;20519;-67
2023/10/30 00:43:11;;;;;;;3.00;1.20;;;31.60;28.60;;;;;;4956291;29;20023;-66
2023/10/30 00:45:39;;;;;;;2.10;1.17;;;31.70;28.90;;;;;;4956247;29;20059;-68
2023/10/30 00:48:06;;;;;;;2.50;1.30;;;32.40;28.50;;;;;;4974406;28;20025;-68
2023/10/30 00:50:33;;;;;;;5.30;1.33;;;32.40;28.40;;;;;;4975435;28;20019;-67
2023/10/30 00:53:01;;;;;;;5.70;1.58;;;33.00;28.50;;;;;;4975234;28;20034;-67
2023/10/30 00:55:28;;;;;;;2.88;1.33;;;33.50;28.80;;;;;;4975615;28;20061;-66
2023/10/30 00:57:55;;;;;;;2.65;1.38;;;33.90;27.90;;;;;;4975465;28;20571;-69
2023/10/30 01:00:23;;;;;;;3.63;1.77;;;34.00;27.90;;;;;;4975305;28;20139;-68
2023/10/30 01:02:50;;;;;;;3.53;1.48;;;34.20;28.00;;;;;;4974188;28;20128;-68
2023/10/30 01:05:17;;;;;;;6.03;1.75;;;33.90;27.70;;;;;;4974864;28;20426;-68
2023/10/30 01:07:44;;;;;;;6.03;1.38;;;34.20;27.50;;;;;;4974975;28;20057;-68
2023/10/30 01:10:12;;;;;;;2.80;1.20;;;34.20;27.20;;;;;;4975244;28;20030;-68
2023/10/30 01:12:39;;;;;;;4.43;1.65;;;34.10;27.30;;;;;;4975111;28;20105;-68
2023/10/30 01:15:07;;;;;;;5.38;1.50;;;34.60;27.70;;;;;;4975094;28;20027;-68
2023/10/30 01:17:35;;;;;;;1.90;1.00;;;34.70;27.50;;;;;;4975090;28;20019;-68
2023/10/30 01:20:03;;;;;;;4.15;1.35;;;34.80;27.40;;;;;;4974375;28;20146;-68
2023/10/30 01:22:31;;;;;;;5.22;1.27;;;35.10;27.70;;;;;;4974780;28;20491;-65
2023/10/30 01:24:58;;;;;;;3.55;1.10;;;35.80;27.60;;;;;;4975118;28;20054;-68
2023/10/30 01:27:25;;;;;;;2.08;1.10;;;36.30;27.30;;;;;;4974667;28;20021;-66
2023/10/30 01:29:53;;;;;;;7.85;1.27;;;36.30;27.20;;;;;;4964109;28;20082;-68
2023/10/30 01:32:20;;;;;;;3.83;1.20;;;36.30;27.30;;;;;;4967498;28;20110;-66
2023/10/30 01:34:47;;;;;;;2.33;1.63;;;36.30;26.70;;;;;;4974384;28;20026;-66
2023/10/30 01:37:15;;;;;;;2.60;1.13;;;36.30;26.70;;;;;;4970503;28;20019;-67
2023/10/30 01:39:43;;;;;;;1.73;1.13;;;36.00;26.70;;;;;;4955030;29;20479;-66
2023/10/30 01:42:11;;;;;;;4.68;1.25;;;36.40;26.90;;;;;;4955162;29;20572;-67
2023/10/30 01:44:54;;;;;;;3.00;1.20;;;36.80;27.40;;;;;;4955154;29;20109;-67
2023/10/30 01:47:22;;;;;;;2.78;1.10;;;37.60;27.80;;;;;;4954822;29;20023;-68
2023/10/30 01:49:50;;;;;;;4.22;1.25;;;38.10;26.80;;;;;;4955171;29;20031;-66
2023/10/30 01:52:19;;;;;;;1.73;1.02;;;38.00;26.50;;;;;;4955121;29;20027;-67
2023/10/30 01:54:49;;;;;;;1.80;1.10;;;37.80;26.60;;;;;;4955383;28;20024;-67
2023/10/30 01:57:18;;;;;;;2.17;1.13;;;37.20;26.20;;;;;;4954751;28;20032;-68
2023/10/30 01:59:46;;;;;;;4.90;1.60;;;37.00;26.10;;;;;;4954616;29;20042;-68
2023/10/30 02:02:14;;;;;;;6.25;1.45;;;36.90;26.20;;;;;;4954901;29;20023;-67
2023/10/30 02:04:41;;;;;;;5.10;1.63;;;36.50;26.50;;;;;;4954593;29;20520;-68
2023/10/30 02:07:09;;;;;;;2.30;1.30;;;36.20;26.40;;;;;;4954782;29;20016;-68
2023/10/30 02:09:36;;;;;;;2.92;1.30;;;36.40;25.90;;;;;;4954630;29;20034;-68
2023/10/30 02:12:04;;;;;;;5.18;1.20;;;36.40;26.70;;;;;;4954769;28;20019;-67
2023/10/30 02:14:31;;;;;;;3.40;1.13;;;36.90;26.40;;;;;;4953809;29;20027;-67
2023/10/30 02:16:59;;;;;;;2.38;1.35;;;37.00;26.30;;;;;;4954652;29;20031;-67
2023/10/30 02:19:27;;;;;;;2.88;1.42;;;37.00;26.20;;;;;;4954524;29;20062;-69
2023/10/30 02:21:56;;;;;;;5.53;1.50;;;36.90;26.50;;;;;;4954846;29;20444;-68
2023/10/30 02:24:24;;;;;;;2.33;1.60;;;36.30;26.20;;;;;;4954380;29;20430;-68
2023/10/30 02:26:51;;;;;;;2.75;1.27;;;35.50;26.40;;;;;;4954356;29;20027;-68
2023/10/30 02:29:19;;;;;;;2.67;1.50;;;34.40;26.50;;;;;;4966496;28;20050;-68
2023/10/30 02:31:47;;;;;;;3.88;1.55;;;33.80;26.80;;;;;;4973684;28;20101;-69
2023/10/30 02:34:14;;;;;;;3.72;1.52;;;33.80;26.90;;;;;;4973422;28;20047;-69
2023/10/30 02:36:41;;;;;;;2.85;1.48;;;33.80;26.70;;;;;;4973553;28;20030;-66
2023/10/30 02:39:09;;;;;;;3.40;1.70;;;34.10;26.70;;;;;;4955791;28;20442;-67
2023/10/30 02:41:36;;;;;;;6.18;1.67;;;34.90;26.80;;;;;;4973258;28;20023;-67
2023/10/30 02:44:04;;;;;;;4.97;1.60;;;35.80;26.80;;;;;;4973581;28;20073;-67
2023/10/30 02:46:31;;;;;;;1.88;1.35;;;36.30;26.50;;;;;;4959475;28;20042;-67
2023/10/30 02:48:58;;;;;;;3.92;1.50;;;36.50;26.20;;;;;;4954099;29;20030;-67
2023/10/30 02:51:26;;;;;;;3.72;1.42;;;36.60;26.30;;;;;;4954124;28;20453;-67
2023/10/30 02:53:53;;;;;;;3.42;1.40;;;36.50;25.80;;;;;;4953786;29;20029;-68
2023/10/30 02:56:20;;;;;;;5.20;1.67;;;36.20;25.90;;;;;;4952671;29;20471;-67
2023/10/30 02:58:48;;;;;;;5.07;1.60;;;36.10;26.00;;;;;;4953871;28;20031;-68
2023/10/30 03:01:15;;;;;;;3.60;1.50;;;36.30;26.10;;;;;;4954056;29;20023;-67
2023/10/30 03:03:42;;;;;;;7.15;1.60;;;36.80;26.20;;;;;;4954491;28;20030;-68
2023/10/30 03:06:10;;;;;;;3.30;1.50;;;36.90;26.20;;;;;;4953926;29;20081;-67
2023/10/30 03:08:37;;;;;;;6.80;1.92;;;37.10;26.00;;;;;;4953657;29;20054;-66
2023/10/30 03:11:04;;;;;;;7.78;1.67;;;36.50;25.80;;;;;;4953685;29;20445;-66
2023/10/30 03:13:32;;;;;;;5.38;1.40;;;36.10;25.90;;;;;;4953871;29;20412;-67
2023/10/30 03:15:59;;;;;;;4.30;1.15;;;35.90;26.30;;;;;;4953987;29;20027;-67
2023/10/30 03:18:26;;;;;;;1.98;1.38;;;35.70;26.20;;;;;;4953671;29;20051;-67
2023/10/30 03:20:54;;;;;;;3.88;1.40;;;35.10;26.20;;;;;;4954331;28;20377;-67
2023/10/30 03:23:21;;;;;;;3.90;1.48;;;35.70;26.50;;;;;;4953980;29;20070;-68
2023/10/30 03:25:48;;;;;;;3.03;1.40;;;35.90;25.90;;;;;;4955747;28;20030;-67
2023/10/30 03:28:16;;;;;;;3.92;1.40;;;35.10;26.20;;;;;;4957442;29;20099;-67
2023/10/30 03:30:43;;;;;;;5.40;1.58;;;34.50;26.40;;;;;;4957360;29;20023;-67
2023/10/30 03:33:10;;;;;;;5.78;1.40;;;34.50;26.60;;;;;;4957054;28;20122;-67
2023/10/30 03:35:39;;;;;;;2.60;1.20;;;34.40;26.40;;;;;;4956784;29;20027;-66
2023/10/30 03:38:06;;;;;;;2.42;1.50;;;34.10;26.60;;;;;;4957658;28;20019;-66
2023/10/30 03:40:34;;;;;;;4.82;1.52;;;34.30;26.60;;;;;;4957404;29;20039;-67
2023/10/30 03:43:01;;;;;;;7.05;1.45;;;34.60;26.50;;;;;;4957230;29;20032;-67
2023/10/30 03:45:29;;;;;;;3.85;1.58;;;34.50;26.40;;;;;;4957010;29;20024;-67
2023/10/30 03:47:56;;;;;;;2.50;1.65;;;34.40;26.60;;;;;;4957020;29;20023;-66
2023/10/30 03:50:23;;;;;;;3.65;1.38;;;34.30;26.50;;;;;;4956825;28;20027;-67
2023/10/30 03:52:51;;;;;;;4.15;1.75;;;34.40;26.40;;;;;;4957662;28;20023;-67
2023/10/30 03:55:18;;;;;;;2.83;1.40;;;34.20;26.40;;;;;;4957102;28;20023;-67
2023/10/30 03:57:46;;;;;;;2.92;1.48;;;34.20;27.00;;;;;;4956810;29;20061;-66
2023/10/30 04:00:13;;;;;;;2.78;1.67;;;34.00;27.00;;;;;;4956787;29;20528;-67
2023/10/30 04:02:41;;;;;;;4.68;1.50;;;34.00;26.80;;;;;;4956728;29;20151;-67
2023/10/30 04:05:08;;;;;;;3.85;1.70;;;34.40;26.60;;;;;;4956734;29;20102;-68
2023/10/30 04:07:36;;;;;;;4.55;1.70;;;35.00;26.50;;;;;;4956921;29;20066;-67
2023/10/30 04:10:03;;;;;;;2.83;1.80;;;35.10;26.40;;;;;;4957261;28;20609;-68
2023/10/30 04:12:31;;;;;;;4.60;1.60;;;35.00;26.60;;;;;;4956783;29;20031;-67
2023/10/30 04:14:59;;;;;;;9.65;1.85;;;34.60;26.50;;;;;;4955550;29;20090;-67
2023/10/30 04:17:26;;;;;;;3.80;2.28;;;34.50;26.80;;;;;;4956170;29;20408;-67
2023/10/30 04:19:53;;;;;;;5.72;2.33;;;34.30;26.50;;;;;;4956586;29;20063;-68
2023/10/30 04:22:21;;;;;;;5.65;2.10;;;34.10;26.60;;;;;;4956474;29;20027;-68
2023/10/30 04:24:48;;;;;;;3.85;1.70;;;34.00;26.80;;;;;;4956891;29;20054;-66
2023/10/30 04:27:15;;;;;;;4.20;1.60;;;33.80;26.90;;;;;;4960087;28;20025;-69
2023/10/30 04:29:43;;;;;;;2.97;1.80;;;33.80;27.00;;;;;;4975955;28;20077;-69
2023/10/30 04:32:10;;;;;;;5.20;1.88;;;33.70;26.80;;;;;;4975632;28;20098;-68
2023/10/30 04:34:37;;;;;;;5.18;2.03;;;33.60;27.20;;;;;;4975647;28;20043;-68
2023/10/30 04:37:05;;;;;;;5.40;2.53;;;33.60;27.20;;;;;;4974860;28;20069;-66
2023/10/30 04:39:33;;;;;;;3.65;1.83;;;33.70;27.10;;;;;;4975275;28;20031;-67
2023/10/30 04:42:00;;;;;;;3.95;1.83;;;33.70;27.20;;;;;;4975343;28;20456;-69
2023/10/30 04:44:27;;;;;;;3.72;1.92;;;33.90;27.20;;;;;;4952136;29;20350;-67
2023/10/30 04:46:55;;;;;;;2.75;1.80;;;34.10;27.40;;;;;;4956248;29;20464;-68
2023/10/30 04:49:22;;;;;;;3.45;1.30;;;34.30;27.00;;;;;;4956078;29;20054;-69
2023/10/30 04:51:49;;;;;;;5.57;1.80;;;34.40;27.10;;;;;;4956611;29;20054;-69
2023/10/30 04:54:17;;;;;;;6.88;2.65;;;34.20;27.00;;;;;;4955973;29;20151;-68
2023/10/30 04:56:44;;;;;;;5.13;2.03;;;34.00;27.30;;;;;;4956025;29;20031;-68
2023/10/30 04:59:11;;;;;;;3.50;1.58;;;34.00;27.30;;;;;;4954609;29;20042;-68
2023/10/30 05:01:39;;;;;;;4.50;1.70;;;33.90;27.20;;;;;;4956552;28;20292;-68
2023/10/30 05:04:06;;;;;;;3.58;1.60;;;34.00;27.30;;;;;;4954682;29;20030;-66
2023/10/30 05:06:34;;;;;;;5.15;1.85;;;34.10;27.30;;;;;;4955892;29;20101;-68
2023/10/30 05:09:01;;;;;;;5.40;1.63;;;34.10;27.10;;;;;;4955836;29;20035;-68
2023/10/30 05:11:28;;;;;;;4.90;1.90;;;34.10;27.00;;;;;;4955591;28;20082;-68
2023/10/30 05:13:56;;;;;;;5.07;1.80;;;34.00;27.10;;;;;;4955875;28;20019;-69
2023/10/30 05:16:23;;;;;;;4.68;2.00;;;33.80;27.00;;;;;;4955747;29;20023;-69
2023/10/30 05:18:51;;;;;;;3.35;1.70;;;33.70;27.20;;;;;;4956046;28;20136;-69
2023/10/30 05:21:18;;;;;;;4.25;1.85;;;33.60;27.20;;;;;;4955533;28;20114;-68
2023/10/30 05:23:45;;;;;;;4.85;1.90;;;33.60;27.00;;;;;;4955346;29;20046;-67
2023/10/30 05:26:12;;;;;;;5.72;2.22;;;33.50;27.20;;;;;;4955185;29;20030;-67
2023/10/30 05:28:40;;;;;;;6.00;1.90;;;33.60;27.00;;;;;;4955550;29;20024;-68
2023/10/30 05:31:07;;;;;;;5.10;1.90;;;33.50;26.90;;;;;;4958245;28;20093;-69
2023/10/30 05:33:35;;;;;;;5.90;2.00;;;33.50;27.10;;;;;;4974334;28;20070;-67
2023/10/30 05:36:03;;;;;;;6.13;1.98;;;33.50;27.10;;;;;;4964633;28;20121;-67
2023/10/30 05:38:30;;;;;;;4.07;1.58;;;33.50;27.20;;;;;;4954904;29;20019;-68
2023/10/30 05:40:58;;;;;;;5.55;2.15;;;33.60;27.10;;;;;;4951591;29;20055;-67
2023/10/30 05:43:25;;;;;;;6.55;2.00;;;33.60;27.20;;;;;;4954459;29;20456;-68
2023/10/30 05:45:53;;;;;;;5.75;1.70;;;33.50;27.30;;;;;;4948782;29;20093;-68
2023/10/30 05:48:20;;;;;;;3.30;1.90;;;33.40;27.60;;;;;;4950952;28;20023;-67
2023/10/30 05:50:47;;;;;;;3.40;1.98;;;33.40;27.50;;;;;;4949425;28;20036;-67
2023/10/30 05:53:14;;;;;;;3.25;2.03;;;33.40;27.40;;;;;;4953926;28;20050;-68
2023/10/30 05:55:43;;;;;;;4.95;2.00;;;33.40;27.10;;;;;;4953432;29;20449;-67
2023/10/30 05:58:12;;;;;;;6.43;2.42;;;33.40;27.40;;;;;;4953858;29;20027;-67
2023/10/30 06:00:39;;;;;;;3.70;2.10;;;33.70;27.00;;;;;;4952582;28;20035;-68
2023/10/30 06:03:13;;;;;;;5.20;2.10;;;33.60;27.10;;;;;;4953222;29;20074;-68
2023/10/30 06:05:40;;;;;;;8.02;2.30;;;33.50;27.00;;;;;;4954721;29;20019;-68
2023/10/30 06:08:08;;;;;;;5.13;2.25;;;33.50;27.10;;;;;;4954408;29;20125;-69
2023/10/30 06:10:37;;;;;;;3.67;2.40;;;33.40;27.80;;;;;;4955168;28;20027;-68
2023/10/30 06:13:06;;;;;;;6.60;2.60;;;33.30;27.60;;;;;;4954478;29;20364;-68
2023/10/30 06:15:34;;;;;;;5.30;2.80;;;33.30;28.00;;;;;;4954528;29;20031;-69
2023/10/30 06:18:03;;;;;;;6.95;2.95;;;33.30;27.30;;;;;;4954484;29;20023;-68
2023/10/30 06:20:31;;;;;;;4.00;2.47;;;33.30;27.30;;;;;;4954563;29;20058;-68
2023/10/30 06:22:59;;;;;;;4.60;2.33;;;33.20;27.30;;;;;;4954536;29;20024;-69
2023/10/30 06:25:27;;;;;;;4.18;2.50;;;33.10;27.80;;;;;;4953263;29;20102;-69
2023/10/30 06:27:55;;;;;;;5.75;2.45;;;33.10;27.50;;;;;;4969384;28;20034;-69
2023/10/30 06:30:22;;;;;;;6.70;2.92;;;33.10;27.40;;;;;;4971427;28;20130;-68
2023/10/30 06:32:50;;;;;;;10.18;3.00;;;33.00;27.50;;;;;;4972283;28;20049;-69
2023/10/30 06:35:17;;;;;;;6.45;3.20;;;32.90;27.50;;;;;;4971755;28;20467;-68
2023/10/30 06:37:44;;;;;;;8.63;2.75;;;32.80;27.90;;;;;;4955913;28;20027;-66
2023/10/30 06:40:12;;;;;;;5.25;2.65;;;32.80;27.70;;;;;;4953688;29;20122;-68
2023/10/30 06:42:39;;;;;;;7.50;2.97;;;32.80;27.70;;;;;;4954139;29;20070;-68
2023/10/30 06:45:07;;;;;;;5.53;2.70;;;32.80;27.60;;;;;;4954507;28;20016;-68
2023/10/30 06:47:35;;;;;;;6.43;3.05;;;32.90;27.70;;;;;;4954210;29;20412;-68
2023/10/30 06:50:02;;;;;;;6.55;2.75;;;32.80;27.50;;;;;;4954207;29;20046;-69
2023/10/30 06:52:30;;;;;;;6.45;3.45;;;32.90;27.40;;;;;;4953922;29;20118;-67
2023/10/30 06:54:57;;;;;;;7.70;2.95;;;33.10;27.80;;;;;;4953914;29;20365;-67
2023/10/30 06:57:24;;;;;;;5.97;2.75;;;33.20;27.80;;;;;;4953826;29;20476;-67
2023/10/30 06:59:54;;;;;;;5.53;2.63;;;33.40;27.70;;;;;;4953746;28;20127;-67
2023/10/30 07:02:22;;;;;;;6.32;3.28;;;33.40;27.90;;;;;;4953944;29;20078;-68
2023/10/30 07:04:49;;;;;;;10.18;2.88;;;33.50;27.70;;;;;;4953982;29;20019;-67
2023/10/30 07:07:16;;;;;;;10.38;2.63;;;33.50;27.60;;;;;;4953907;29;20082;-67
2023/10/30 07:09:43;;;;;;;7.07;2.60;;;33.30;27.30;;;;;;4953817;29;20027;-68
2023/10/30 07:12:11;;;;;;;9.63;2.50;;;33.20;27.40;;;;;;4953576;29;20081;-68
2023/10/30 07:14:39;;;;;;;4.88;2.45;;;33.10;27.40;;;;;;4953649;29;20114;-67
2023/10/30 07:17:07;;;;;;;5.90;2.67;;;33.00;27.60;;;;;;4956478;28;20023;-67
2023/10/30 07:19:34;;;;;;;7.38;2.80;;;32.90;27.50;;;;;;4972889;28;20085;-67
2023/10/30 07:22:04;;;;;;;3.85;2.25;;;32.90;27.80;;;;;;4972942;28;20062;-67
2023/10/30 07:24:31;;;;;;;7.30;2.28;;;32.70;27.70;;;;;;4972828;28;20073;-67
2023/10/30 07:26:58;;;;;;;4.82;2.53;;;32.70;27.70;;;;;;4971386;28;20077;-67
2023/10/30 07:29:25;;;;;;;8.13;2.03;;;32.60;27.70;;;;;;4972985;28;20023;-65
2023/10/30 07:31:55;;;;;;;12.57;2.53;;;32.50;27.60;;;;;;4972535;28;20337;-67
2023/10/30 07:34:22;;;;;;;8.70;2.28;;;32.40;27.70;;;;;;4967850;28;20388;-67
2023/10/30 07:36:49;;;;;;;9.18;2.40;;;32.30;27.90;;;;;;4953465;28;20034;-67
2023/10/30 07:39:17;;;;;;;6.38;2.20;;;32.10;27.90;;;;;;4953266;29;20030;-67
2023/10/30 07:41:44;;;;;;;7.38;2.20;;;32.00;27.80;;;;;;4953365;29;20023;-68
2023/10/30 07:44:12;;;;;;;8.85;2.33;;;31.90;27.80;;;;;;4953567;29;20023;-67
2023/10/30 07:46:39;;;;;;;8.68;2.45;;;31.70;27.80;;;;;;4953537;29;20031;-67
2023/10/30 07:49:07;;;;;;;9.45;2.30;;;31.70;27.90;;;;;;4953544;29;20070;-68
2023/10/30 07:51:35;;;;;;;11.90;2.30;;;31.60;27.90;;;;;;4952557;28;20031;-67
2023/10/30 07:54:02;;;;;;;4.38;1.90;;;31.50;27.90;;;;;;4953191;29;20015;-67
2023/10/30 07:56:29;;;;;;;11.30;2.35;;;31.50;28.00;;;;;;4952388;29;20031;-67
2023/10/30 07:58:57;;;;;;;4.88;2.10;;;31.30;28.00;;;;;;4953449;28;20019;-67
2023/10/30 08:01:25;;;;;;;8.15;2.05;;;31.20;28.20;;;;;;4953385;29;20220;-67
2023/10/30 08:03:52;;;;;;;6.53;1.88;;;31.10;28.30;;;;;;4953340;29;20023;-67
2023/10/30 08:06:20;;;;;;;10.50;2.25;;;30.90;28.50;;;;;;4953267;29;20038;-67
2023/10/30 08:08:48;;;;;;;5.75;2.33;;;30.80;28.40;;;;;;4953676;28;20019;-67
2023/10/30 08:11:15;;;;;;;6.60;1.90;;;30.90;28.30;;;;;;4954322;28;20024;-67
2023/10/30 08:13:42;;;;;;;8.18;2.38;;;30.70;28.40;;;;;;4943113;29;20024;-67
2023/10/30 08:16:12;;;;;;;6.75;1.98;;;30.70;28.30;;;;;;4937661;29;20364;-69
2023/10/30 08:18:40;;;;;;;4.80;2.05;;;30.60;28.50;;;;;;4937369;29;20032;-67
2023/10/30 08:21:07;;;;;;;7.38;1.90;;;30.50;28.40;;;;;;4937840;29;20516;-68
2023/10/30 08:23:37;;;;;;;5.05;2.05;;;30.40;28.40;;;;;;4936038;29;20028;-67
2023/10/30 08:26:05;;;;;;;9.07;1.88;;;30.40;28.70;;;;;;4958355;28;20411;-67
2023/10/30 08:28:33;;;;;;;7.45;2.22;;;30.30;28.40;;;;;;4975774;28;20401;-67
2023/10/30 08:31:00;;;;;;;4.45;2.13;;;30.20;28.50;;;;;;4975625;28;20027;-67
2023/10/30 08:33:28;;;;;;;4.70;1.92;;;30.20;28.60;;;;;;4975581;28;20039;-67
2023/10/30 08:35:55;;;;;;;7.50;1.98;;;30.10;28.50;;;;;;4975476;28;20085;-68
2023/10/30 08:38:23;;;;;;;3.38;1.95;;;30.10;28.40;;;;;;4975652;28;20022;-67
2023/10/30 08:40:50;;;;;;;6.35;2.10;;;30.10;28.60;;;;;;4975418;28;20050;-67
2023/10/30 08:43:18;;;;;;;5.43;1.80;;;30.00;28.70;;;;;;4963260;28;20027;-67
2023/10/30 08:45:45;;;;;;;5.50;2.00;;;29.90;28.80;;;;;;4956311;29;20019;-68
2023/10/30 08:48:12;;;;;;;7.97;2.28;;;29.70;28.80;;;;;;4956066;29;20106;-67
2023/10/30 08:50:41;;;;;;;4.25;2.08;;;29.70;28.80;;;;;;4956363;29;20026;-69
2023/10/30 08:53:08;;;;;;;4.00;2.42;;;29.60;28.80;;;;;;4956321;28;20032;-68
2023/10/30 08:55:35;;;;;;;3.38;2.03;;;29.60;28.80;;;;;;4956489;28;20373;-68
2023/10/30 08:58:03;;;;;;;4.80;1.90;;;29.50;29.00;;;;;;4956177;29;20114;-68
2023/10/30 09:00:30;;;;;;;8.10;2.22;;;29.40;29.00;;;;;;4956375;28;20110;-68
2023/10/30 09:02:57;;;;;;;6.28;2.08;;;29.20;29.00;;;;;;4955864;29;20034;-68
2023/10/30 09:05:24;;;;;;;9.32;1.63;;;29.10;29.30;;;;;;4956047;29;20401;-68
2023/10/30 09:07:52;;;;;;;7.00;2.20;;;28.90;29.30;;;;;;4955981;29;20016;-68
2023/10/30 09:10:26;;;;;;;5.07;2.15;;;28.80;29.40;;;;;;4951338;29;20034;-68
2023/10/30 09:12:54;;;;;;;5.80;1.90;;;28.60;29.70;;;;;;4936728;29;20024;-68
2023/10/30 09:15:21;;;;;;;6.28;2.20;;;28.30;29.90;;;;;;4936504;29;20356;-68
2023/10/30 09:17:49;;;;;;;4.13;2.10;;;28.10;30.00;;;;;;4954090;28;20023;-68
2023/10/30 09:20:16;;;;;;;7.13;2.17;;;28.10;30.00;;;;;;4954418;29;20380;-68
2023/10/30 09:22:44;;;;;;;5.60;2.20;;;28.00;30.00;;;;;;4955651;28;20034;-68
2023/10/30 09:25:11;;;;;;;9.27;2.35;;;28.00;30.00;;;;;;4955677;29;20023;-68
2023/10/30 09:27:39;;;;;;;4.82;2.13;;;28.00;30.00;;;;;;4955499;29;20065;-66
2023/10/30 09:30:11;;;;;;;5.78;1.80;;;27.90;30.20;;;;;;4955648;29;20031;-67
2023/10/30 09:32:38;;;;;;;6.55;2.17;;;27.80;30.50;;;;;;4970650;28;20101;-66
2023/10/30 09:35:06;;;;;;;7.15;1.90;;;27.60;30.80;;;;;;4956131;28;20114;-67
2023/10/30 09:37:33;;;;;;;4.30;2.78;;;27.50;31.60;;;;;;4955605;29;20024;-69
2023/10/30 09:40:01;;;;;;;6.05;2.10;;;27.30;30.90;;;;;;4955412;28;20043;-68
2023/10/30 09:42:29;;;;;;;7.25;2.20;;;27.30;30.80;;;;;;4955221;28;20532;-68
2023/10/30 09:44:56;;;;;;;3.20;1.73;;;27.30;30.90;;;;;;4955531;29;20027;-68
2023/10/30 09:47:27;;;;;;;2.55;1.80;;;27.20;31.00;;;;;;4938064;29;20491;-68
2023/10/30 09:49:56;;;;;;;8.38;2.40;;;27.10;31.10;;;;;;4956049;28;20062;-68
2023/10/30 09:52:27;;;;;;;5.10;2.20;;;27.00;31.00;;;;;;4974420;28;20019;-68
2023/10/30 09:54:56;;;;;;;6.20;2.63;;;27.00;31.10;;;;;;4972982;28;20457;-68
2023/10/30 09:57:24;;;;;;;6.68;2.05;;;27.00;31.60;;;;;;4974539;28;20023;-68
2023/10/30 09:59:54;;;;;;;6.40;2.00;;;27.10;31.70;;;;;;4974455;28;20034;-68
2023/10/30 10:02:22;;;;;;;6.00;2.40;;;27.00;31.30;;;;;;4974437;28;20035;-68
2023/10/30 10:04:49;;;;;;;7.30;2.83;;;27.10;31.00;;;;;;4974397;28;20106;-68
2023/10/30 10:07:18;;;;;;;5.43;2.30;;;27.00;31.10;;;;;;4969651;28;20031;-68
2023/10/30 10:10:03;;;;;;;5.55;2.28;;;27.20;30.90;;;;;;4955024;28;20388;-68
2023/10/30 10:12:31;;;;;;;8.15;2.38;;;27.10;31.10;;;;;;4954810;29;20030;-66
2023/10/30 10:14:59;;;;;;;4.68;2.20;;;26.90;31.60;;;;;;4954748;29;20057;-67
2023/10/30 10:17:26;;;;;;;6.82;2.55;;;26.80;31.80;;;;;;4955257;29;20023;-67
2023/10/30 10:19:53;;;;;;;4.80;2.28;;;26.80;32.20;;;;;;4937330;29;20027;-67
2023/10/30 10:22:31;;;;;;;6.78;2.75;;;26.60;32.40;;;;;;4954847;28;20081;-66
2023/10/30 10:25:02;;;;;;;4.78;2.45;;;26.40;32.30;;;;;;4955107;28;20090;-66
2023/10/30 10:27:29;;;;;;;4.20;2.40;;;26.30;32.60;;;;;;4954595;29;20033;-67
2023/10/30 10:29:58;;;;;;;4.78;2.70;;;26.10;33.00;;;;;;4954483;29;20023;-66
2023/10/30 10:32:27;;;;;;;4.80;2.50;;;26.00;33.80;;;;;;4967240;28;20034;-67
2023/10/30 10:35:01;;;;;;;9.75;2.67;;;25.80;34.40;;;;;;4973575;28;20031;-66
2023/10/30 10:37:29;;;;;;;6.93;2.60;;;25.60;34.30;;;;;;4973777;28;20046;-66
2023/10/30 10:39:57;;;;;;;6.63;2.55;;;25.50;36.00;;;;;;4973674;28;20033;-67
2023/10/30 10:42:26;;;;;;;7.03;2.00;;;25.50;34.90;;;;;;4960451;28;20046;-66
2023/10/30 10:44:55;;;;;;;5.78;2.38;;;25.50;34.50;;;;;;4954189;29;20019;-67
2023/10/30 10:47:24;;;;;;;5.30;2.40;;;25.40;34.80;;;;;;4954389;28;20029;-66
2023/10/30 10:49:51;;;;;;;5.07;2.70;;;25.30;35.10;;;;;;4954345;29;20029;-67
2023/10/30 10:52:21;;;;;;;7.47;2.72;;;25.30;34.50;;;;;;4954336;29;20023;-66
2023/10/30 10:55:09;;;;;;;5.55;3.15;;;25.30;33.70;;;;;;4954273;29;20019;-67
2023/10/30 10:58:27;;;;;;;9.48;2.55;;;25.40;34.50;;;;;;4954263;29;20507;-67
2023/10/30 11:00:55;;;;;;;12.93;2.75;;;25.40;33.80;;;;;;4922426;29;20441;-67
2023/10/30 11:03:23;;;;;;;4.95;2.70;;;25.40;33.60;;;;;;4934894;29;20476;-67
2023/10/30 11:05:53;;;;;;;5.15;2.22;;;25.40;33.60;;;;;;4944929;29;20027;-68
2023/10/30 11:08:52;;;;;;;5.45;2.17;;;25.40;33.50;;;;;;4954215;29;20019;-67
2023/10/30 11:11:47;;;;;;;6.22;2.95;;;25.40;33.60;;;;;;4943726;29;20046;-67
2023/10/30 11:14:33;;;;;;;7.00;2.70;;;25.30;33.90;;;;;;4953998;28;20078;-66
2023/10/30 11:17:03;;;;;;;8.63;2.83;;;25.20;34.00;;;;;;4954584;28;20038;-67
2023/10/30 11:19:32;;;;;;;5.30;2.55;;;25.10;34.50;;;;;;4954005;29;20034;-67
2023/10/30 11:22:00;;;;;;;9.18;2.67;;;25.00;34.50;;;;;;4954063;29;20027;-68
2023/10/30 11:24:39;;;;;;;4.70;2.50;;;24.80;35.90;;;;;;4953768;29;20019;-68
2023/10/30 11:27:28;;;;;;;8.52;2.38;;;24.60;36.00;;;;;;4954123;28;20453;-67
2023/10/30 11:30:05;;;;;;;7.57;2.40;;;24.40;36.70;;;;;;4954033;29;20063;-67
2023/10/30 11:32:36;;;;;;;;;;;24.20;36.00;;;;;;4962038;28;20491;-67
2023/10/30 11:35:04;;;;;;;5.28;2.13;;;24.10;37.70;;;;;;4953796;29;20264;-67
2023/10/30 11:37:33;;;;;;;6.28;2.13;;;23.90;37.70;;;;;;4954011;29;20054;-67
2023/10/30 11:40:06;;;;;;;3.53;2.30;;;23.80;38.30;;;;;;4953853;29;20464;-67
2023/10/30 11:42:39;;;;;;;5.82;2.35;;;23.60;37.90;;;;;;4953878;29;20046;-67
2023/10/30 11:45:30;;;;;;;5.15;2.22;;;23.50;39.20;;;;;;4953787;28;20082;-67
2023/10/30 11:48:05;;;;;;;8.95;2.63;;;23.40;39.20;;;;;;4957426;29;20033;-67
2023/10/30 11:50:47;;;;;;;3.95;2.13;;;23.30;39.40;;;;;;4957947;28;20034;-67
2023/10/30 11:53:17;;;;;;;5.45;2.45;;;23.20;39.60;;;;;;4957374;29;20448;-67
2023/10/30 11:55:47;;;;;;;8.18;2.50;;;23.10;40.30;;;;;;4957209;29;20413;-67
2023/10/30 11:58:15;;;;;;;10.73;2.63;;;23.10;40.80;;;;;;4957474;29;20359;-67
2023/10/30 12:00:46;;;;;;;5.22;2.33;;;23.00;41.80;;;;;;4957282;29;20457;-67
2023/10/30 12:03:14;;;;;;;3.90;2.30;;;22.90;40.70;;;;;;4951189;29;20027;-67
2023/10/30 12:05:42;;;;;;;5.78;2.50;;;23.00;41.20;;;;;;4938188;28;20107;-67
2023/10/30 12:08:10;;;;;;;7.75;2.60;;;22.90;40.70;;;;;;4975349;28;20019;-66
2023/10/30 12:10:39;;;;;;;5.18;2.47;;;22.70;41.00;;;;;;4976500;28;20023;-66
2023/10/30 12:13:08;;;;;;;10.63;2.40;;;22.50;41.30;;;;;;4976227;28;20027;-67
2023/10/30 12:15:36;;;;;;;6.03;2.97;;;22.70;41.80;;;;;;4975081;28;20027;-65
2023/10/30 12:18:06;;;;;;;5.43;2.55;;;22.50;41.40;;;;;;4976231;28;20491;-66
2023/10/30 12:20:33;;;;;;;4.97;2.40;;;22.40;41.40;;;;;;4976015;28;20480;-65
2023/10/30 12:23:01;;;;;;;8.48;2.22;;;22.30;42.10;;;;;;4975406;28;20689;-65
2023/10/30 12:25:28;;;;;;;5.93;2.40;;;22.20;41.30;;;;;;4975973;28;20500;-66
2023/10/30 12:28:04;;;;;;;8.68;2.50;;;22.20;40.80;;;;;;4976195;28;20049;-66
2023/10/30 12:30:38;;;;;;;5.60;2.70;;;22.20;41.50;;;;;;4975862;28;20080;-66
2023/10/30 12:33:12;;;;;;;3.80;1.70;;;22.20;41.10;;;;;;4976020;28;20121;-68
2023/10/30 12:35:41;;;;;;;2.70;1.95;;;22.90;37.10;;;;;;4976088;28;20096;-67
2023/10/30 12:38:15;;;;;;;8.55;2.00;;;23.40;36.50;;;;;;4975914;28;20069;-67
2023/10/30 12:40:44;;;;;;;6.82;2.10;;;23.50;36.40;;;;;;4963438;28;20053;-67
2023/10/30 12:43:13;;;;;;;7.63;2.10;;;23.50;36.20;;;;;;4975614;28;20095;-67
2023/10/30 12:45:40;;;;;;;6.32;2.10;;;23.60;36.20;;;;;;4975592;28;20037;-67
2023/10/30 12:48:07;;;;;;;10.32;2.58;;;23.60;36.10;;;;;;4975868;28;20026;-67
2023/10/30 12:50:35;;;;;;;6.35;2.35;;;24.00;35.40;;;;;;4975685;28;20095;-67
2023/10/30 12:53:02;;;;;;;3.53;2.20;;;24.10;35.30;;;;;;4975646;28;20022;-67